createdAt,value
2022-12-25T00:01:17.147Z,29.67
2022-12-25T00:03:46.122Z,31.07
2022-12-25T00:06:15.084Z,30.73
2022-12-25T00:08:47.240Z,30.60
2022-12-25T00:11:17.710Z,30.43
2022-12-25T00:13:49.105Z,31.00
2022-12-25T00:16:19.538Z,31.17
2022-12-25T00:18:52.323Z,30.23
2022-12-25T00:21:21.328Z,29.97
2022-12-25T00:23:50.093Z,30.57
2022-12-25T00:26:19.945Z,30.33
2022-12-25T00:28:53.111Z,30.83
2022-12-25T00:31:22.002Z,31.10
2022-12-25T00:33:52.160Z,29.83
2022-12-25T00:36:22.975Z,29.03
2022-12-25T00:38:52.544Z,29.90
2022-12-25T00:41:43.925Z,29.37
2022-12-25T00:44:17.113Z,29.50
2022-12-25T00:46:46.172Z,29.50
2022-12-25T00:49:15.066Z,29.03
2022-12-25T00:51:43.757Z,27.90
2022-12-25T00:54:15.255Z,29.63
2022-12-25T00:56:43.490Z,27.13
2022-12-25T00:59:13.092Z,26.00
2022-12-25T01:01:43.241Z,26.87
2022-12-25T01:04:12.553Z,27.57
2022-12-25T01:06:41.491Z,26.37
2022-12-25T01:09:30.308Z,26.83
2022-12-25T01:11:59.131Z,25.00
2022-12-25T01:14:27.263Z,25.20
2022-12-25T01:17:00.173Z,25.57
2022-12-25T01:19:28.819Z,25.63
2022-12-25T01:21:57.075Z,25.20
2022-12-25T01:24:25.310Z,24.37
2022-12-25T01:26:55.308Z,23.13
2022-12-25T01:29:26.457Z,22.53
2022-12-25T01:31:57.234Z,21.10
2022-12-25T01:34:25.652Z,20.17
2022-12-25T01:36:54.160Z,19.67
2022-12-25T01:39:23.130Z,19.57
2022-12-25T01:41:54.311Z,18.83
2022-12-25T01:45:15.108Z,17.40
2022-12-25T01:47:48.216Z,17.07
2022-12-25T01:50:16.401Z,18.43
2022-12-25T01:52:45.386Z,18.17
2022-12-25T01:55:13.939Z,17.33
2022-12-25T01:57:44.666Z,17.17
2022-12-25T02:00:14.970Z,17.27
2022-12-25T02:02:46.248Z,16.93
2022-12-25T02:05:22.470Z,15.40
2022-12-25T02:07:52.708Z,16.70
2022-12-25T02:10:22.014Z,15.03
2022-12-25T02:12:51.148Z,16.37
2022-12-25T02:15:22.854Z,16.27
2022-12-25T02:18:02.110Z,14.33
2022-12-25T02:20:52.976Z,14.90
2022-12-25T02:24:02.211Z,15.83
2022-12-25T02:26:52.485Z,14.53
2022-12-25T02:29:30.998Z,13.87
2022-12-25T02:32:08.359Z,15.07
2022-12-25T02:34:44.449Z,13.43
2022-12-25T02:37:17.003Z,13.47
2022-12-25T02:40:00.336Z,13.97
2022-12-25T02:42:55.846Z,13.43
2022-12-25T02:45:49.673Z,13.83
2022-12-25T02:48:37.787Z,13.57
2022-12-25T02:51:26.976Z,13.20
2022-12-25T02:54:16.982Z,14.20
2022-12-25T02:57:05.496Z,13.37
2022-12-25T02:59:57.614Z,13.70
2022-12-25T03:02:46.884Z,13.37
2022-12-25T03:05:41.786Z,13.53
2022-12-25T03:08:15.276Z,13.80
2022-12-25T03:11:18.996Z,13.57
2022-12-25T03:13:52.427Z,12.93
2022-12-25T03:16:39.705Z,13.07
2022-12-25T03:19:26.457Z,13.80
2022-12-25T03:22:13.998Z,13.53
2022-12-25T03:25:00.722Z,13.97
2022-12-25T03:27:35.180Z,14.00
2022-12-25T03:30:21.981Z,14.40
2022-12-25T03:33:17.787Z,15.70
2022-12-25T03:36:04.851Z,15.30
2022-12-25T03:39:00.948Z,15.37
2022-12-25T03:41:57.100Z,14.67
2022-12-25T03:44:48.663Z,14.47
2022-12-25T03:47:37.755Z,16.00
2022-12-25T03:50:27.646Z,15.43
2022-12-25T03:53:17.727Z,16.27
2022-12-25T03:56:03.875Z,16.10
2022-12-25T03:58:50.857Z,16.33
2022-12-25T04:01:37.014Z,16.73
2022-12-25T04:04:25.523Z,16.23
2022-12-25T04:07:12.702Z,16.73
2022-12-25T04:10:02.590Z,17.57
2022-12-25T04:12:48.658Z,15.90
2022-12-25T04:15:34.654Z,16.87
2022-12-25T04:18:21.145Z,16.57
2022-12-25T04:21:10.196Z,16.67
2022-12-25T04:23:53.255Z,17.10
2022-12-25T04:26:41.037Z,15.77
2022-12-25T04:29:27.903Z,16.93
2022-12-25T04:32:20.281Z,16.83
2022-12-25T04:35:06.179Z,16.27
2022-12-25T04:37:35.164Z,16.93
2022-12-25T04:40:03.311Z,16.97
2022-12-25T04:42:36.254Z,16.73
2022-12-25T04:45:05.186Z,16.57
2022-12-25T04:47:34.174Z,17.40
2022-12-25T04:50:03.103Z,17.00
2022-12-25T04:52:37.522Z,17.03
2022-12-25T04:55:06.957Z,17.27
2022-12-25T04:57:37.195Z,16.73
2022-12-25T05:00:10.917Z,17.03
2022-12-25T05:02:40.259Z,17.37
2022-12-25T05:05:10.221Z,17.47
2022-12-25T05:07:39.248Z,18.10
2022-12-25T05:10:09.194Z,17.33
2022-12-25T05:12:41.793Z,17.80
2022-12-25T05:15:11.052Z,17.57
2022-12-25T05:17:40.009Z,17.53
2022-12-25T05:20:11.345Z,17.83
2022-12-25T05:22:43.172Z,17.53
2022-12-25T05:25:12.201Z,19.23
2022-12-25T05:27:42.269Z,18.37
2022-12-25T05:30:11.136Z,19.00
2022-12-25T05:32:40.268Z,18.03
2022-12-25T05:35:09.415Z,18.27
2022-12-25T05:37:38.204Z,18.23
2022-12-25T05:40:08.067Z,17.77
2022-12-25T05:42:40.703Z,17.37
2022-12-25T05:45:11.369Z,17.87
2022-12-25T05:47:39.739Z,18.60
2022-12-25T05:50:10.040Z,17.90
2022-12-25T05:52:39.195Z,18.80
2022-12-25T05:55:09.994Z,18.00
2022-12-25T05:57:38.163Z,18.23
2022-12-25T06:00:11.047Z,18.77
2022-12-25T06:02:42.333Z,17.97
2022-12-25T06:05:13.830Z,17.93
2022-12-25T06:07:42.177Z,17.13
2022-12-25T06:10:10.854Z,19.47
2022-12-25T06:12:40.196Z,18.73
2022-12-25T06:15:12.034Z,19.90
2022-12-25T06:17:43.871Z,20.03
2022-12-25T06:20:12.331Z,19.67
2022-12-25T06:22:41.189Z,19.40
2022-12-25T06:25:10.279Z,19.00
2022-12-25T06:27:39.281Z,19.33
2022-12-25T06:30:08.841Z,19.07
2022-12-25T06:32:41.268Z,18.67
2022-12-25T06:35:09.998Z,18.40
2022-12-25T06:37:39.226Z,17.60
2022-12-25T06:40:13.176Z,17.30
2022-12-25T06:42:41.421Z,17.80
2022-12-25T06:45:10.462Z,18.47
2022-12-25T06:47:40.250Z,18.53
2022-12-25T06:50:09.239Z,17.27
2022-12-25T06:52:38.241Z,18.63
2022-12-25T06:55:09.482Z,17.53
2022-12-25T06:57:38.285Z,17.13
2022-12-25T07:00:08.104Z,19.93
2022-12-25T07:02:41.154Z,19.07
2022-12-25T07:05:11.688Z,20.47
2022-12-25T07:07:40.137Z,20.73
2022-12-25T07:10:09.537Z,22.40
2022-12-25T07:12:37.779Z,20.67
2022-12-25T07:15:08.908Z,22.30
2022-12-25T07:17:37.266Z,23.10
2022-12-25T07:20:07.030Z,23.57
2022-12-25T07:22:37.263Z,23.87
2022-12-25T07:25:06.028Z,26.33
2022-12-25T07:27:38.385Z,26.77
2022-12-25T07:30:08.221Z,25.30
2022-12-25T07:32:37.218Z,25.83
2022-12-25T07:35:06.097Z,24.43
2022-12-25T07:37:34.284Z,26.93
2022-12-25T07:40:10.074Z,24.33
2022-12-25T07:42:39.248Z,25.70
2022-12-25T07:45:12.241Z,26.23
2022-12-25T07:47:40.508Z,25.40
2022-12-25T07:50:10.275Z,24.17
2022-12-25T07:52:43.381Z,25.93
2022-12-25T07:55:15.854Z,25.37
2022-12-25T07:57:44.121Z,24.73
2022-12-25T08:00:13.765Z,25.17
2022-12-25T08:02:42.425Z,23.77
2022-12-25T08:05:11.314Z,23.97
2022-12-25T08:07:39.548Z,24.20
2022-12-25T08:10:08.693Z,22.63
2022-12-25T08:12:39.273Z,24.10
2022-12-25T08:15:15.763Z,25.53
2022-12-25T08:17:43.889Z,24.73
2022-12-25T08:20:15.745Z,24.93
2022-12-25T08:22:43.929Z,25.00
2022-12-25T08:25:12.113Z,24.60
2022-12-25T08:27:45.466Z,23.37
2022-12-25T08:30:15.231Z,24.30
2022-12-25T08:32:44.465Z,25.60
2022-12-25T08:35:12.640Z,25.77
2022-12-25T08:37:41.265Z,25.10
2022-12-25T08:40:12.328Z,24.77
2022-12-25T08:42:41.935Z,25.33
2022-12-25T08:45:11.493Z,24.53
2022-12-25T08:47:40.215Z,25.67
2022-12-25T08:50:09.824Z,25.33
2022-12-25T08:52:41.810Z,26.53
2022-12-25T08:55:10.591Z,25.90
2022-12-25T08:57:40.546Z,27.37
2022-12-25T09:00:11.444Z,26.97
2022-12-25T09:02:39.681Z,25.90
2022-12-25T09:05:10.698Z,27.50
2022-12-25T09:07:39.082Z,25.73
2022-12-25T09:10:10.518Z,27.17
2022-12-25T09:12:38.930Z,27.67
2022-12-25T09:15:09.690Z,26.80
2022-12-25T09:17:40.011Z,27.47
2022-12-25T09:20:09.133Z,28.23
2022-12-25T09:22:37.377Z,27.43
2022-12-25T09:25:06.125Z,27.67
2022-12-25T09:27:34.359Z,26.80
2022-12-25T09:30:02.663Z,28.27
2022-12-25T09:32:35.769Z,27.37
2022-12-25T09:35:04.219Z,26.47
2022-12-25T09:37:32.452Z,26.67
2022-12-25T09:40:00.587Z,26.13
2022-12-25T09:42:36.314Z,25.60
2022-12-25T09:45:10.834Z,24.27
2022-12-25T09:47:45.932Z,26.93
2022-12-25T09:50:17.729Z,25.07
2022-12-25T09:52:53.108Z,27.40
2022-12-25T09:55:24.226Z,28.70
2022-12-25T09:57:55.456Z,23.50
2022-12-25T10:00:25.747Z,23.60
2022-12-25T10:03:26.415Z,23.17
2022-12-25T10:06:13.632Z,22.43
2022-12-25T10:09:13.982Z,21.93
2022-12-25T10:12:00.465Z,22.57
2022-12-25T10:14:39.252Z,22.00
2022-12-25T10:17:28.138Z,22.70
2022-12-25T10:20:03.325Z,22.57
2022-12-25T10:22:38.947Z,23.03
2022-12-25T10:25:18.399Z,20.97
2022-12-25T10:27:53.409Z,22.23
2022-12-25T10:30:24.405Z,20.80
2022-12-25T10:32:54.361Z,21.53
2022-12-25T10:35:29.317Z,22.50
2022-12-25T10:38:02.361Z,22.07
2022-12-25T10:40:41.921Z,21.03
2022-12-25T10:43:16.189Z,22.30
2022-12-25T10:45:45.970Z,21.77
2022-12-25T10:48:24.753Z,20.97
2022-12-25T10:50:53.320Z,21.90
2022-12-25T10:53:26.337Z,20.80
2022-12-25T10:56:01.320Z,21.07
2022-12-25T10:58:30.351Z,19.60
2022-12-25T11:01:01.337Z,18.90
2022-12-25T11:03:32.470Z,17.83
2022-12-25T11:06:04.168Z,18.87
2022-12-25T11:08:36.344Z,18.13
2022-12-25T11:11:07.081Z,20.63
2022-12-25T11:13:40.621Z,19.57
2022-12-25T11:16:11.723Z,18.00
2022-12-25T11:18:48.624Z,19.73
2022-12-25T11:21:19.147Z,18.93
2022-12-25T11:23:57.349Z,20.20
2022-12-25T11:26:26.176Z,19.00
2022-12-25T11:28:56.607Z,17.23
2022-12-25T11:31:35.440Z,18.83
2022-12-25T11:34:11.484Z,19.47
2022-12-25T11:36:48.769Z,18.00
2022-12-25T11:39:24.842Z,17.07
2022-12-25T11:42:01.419Z,17.20
2022-12-25T11:44:43.999Z,16.77
2022-12-25T11:47:20.392Z,17.20
2022-12-25T11:49:58.585Z,17.10
2022-12-25T11:52:34.361Z,18.33
2022-12-25T11:55:10.138Z,16.67
2022-12-25T11:57:40.338Z,16.20
2022-12-25T12:00:16.724Z,16.40
2022-12-25T12:02:48.418Z,15.53
2022-12-25T12:05:44.813Z,15.73
2022-12-25T12:08:14.473Z,18.40
2022-12-25T12:11:18.418Z,19.90
2022-12-25T12:13:59.324Z,15.73
2022-12-25T12:16:28.242Z,15.63
2022-12-25T12:18:57.343Z,16.87
2022-12-25T12:21:27.510Z,16.63
2022-12-25T12:24:06.370Z,17.57
2022-12-25T12:26:41.046Z,16.40
2022-12-25T12:29:23.345Z,26.13
2022-12-25T12:31:53.257Z,19.53
2022-12-25T12:34:25.398Z,16.70
2022-12-25T12:37:01.213Z,15.73
2022-12-25T12:39:35.633Z,16.93
2022-12-25T12:42:14.798Z,15.37
2022-12-25T12:44:48.411Z,17.47
2022-12-25T12:47:31.393Z,16.60
2022-12-25T12:50:01.392Z,16.77
2022-12-25T12:52:36.422Z,16.10
2022-12-25T12:55:07.476Z,16.53
2022-12-25T12:57:43.397Z,17.23
2022-12-25T13:00:18.216Z,17.63
2022-12-25T13:03:35.028Z,17.87
2022-12-25T13:06:13.807Z,17.10
2022-12-25T13:08:58.401Z,16.80
2022-12-25T13:11:30.369Z,17.37
2022-12-25T13:14:03.826Z,18.10
2022-12-25T13:16:38.092Z,17.70
2022-12-25T13:19:10.398Z,17.93
2022-12-25T13:21:38.644Z,17.63
2022-12-25T13:24:18.405Z,18.53
2022-12-25T13:26:47.759Z,24.30
2022-12-25T13:29:30.882Z,19.23
2022-12-25T13:32:00.178Z,17.73
2022-12-25T13:34:32.490Z,18.40
2022-12-25T13:37:05.620Z,18.93
2022-12-25T13:39:35.818Z,18.10
2022-12-25T13:42:09.576Z,18.73
2022-12-25T13:44:46.231Z,19.50
2022-12-25T13:47:21.434Z,18.57
2022-12-25T13:49:50.996Z,19.30
2022-12-25T13:52:22.408Z,17.97
2022-12-25T13:54:55.729Z,17.83
2022-12-25T13:57:29.435Z,18.47
2022-12-25T14:00:03.609Z,18.50
2022-12-25T14:02:37.532Z,18.43
2022-12-25T14:05:23.442Z,18.20
2022-12-25T14:07:54.005Z,18.90
2022-12-25T14:10:24.249Z,18.80
2022-12-25T14:12:54.795Z,18.90
2022-12-25T14:15:33.870Z,19.17
2022-12-25T14:18:03.405Z,18.60
2022-12-25T14:20:41.485Z,17.57
2022-12-25T14:23:16.621Z,18.40
2022-12-25T14:25:47.483Z,18.50
2022-12-25T14:28:24.729Z,17.77
2022-12-25T14:30:55.579Z,17.53
2022-12-25T14:33:27.407Z,30.63
2022-12-25T14:36:01.023Z,23.83
2022-12-25T14:38:32.468Z,19.83
2022-12-25T14:41:02.496Z,21.33
2022-12-25T14:43:36.497Z,18.50
2022-12-25T14:46:07.315Z,18.50
2022-12-25T14:48:35.725Z,19.50
2022-12-25T14:51:07.604Z,19.10
2022-12-25T14:53:39.153Z,18.50
2022-12-25T14:56:09.118Z,17.67
2022-12-25T14:58:42.433Z,17.07
2022-12-25T15:01:24.562Z,18.40
2022-12-25T15:03:53.015Z,17.00
2022-12-25T15:06:24.966Z,18.47
2022-12-25T15:09:00.599Z,18.17
2022-12-25T15:11:30.242Z,18.87
2022-12-25T15:13:59.794Z,18.90
2022-12-25T15:16:32.177Z,20.13
2022-12-25T15:19:01.583Z,21.57
2022-12-25T15:21:34.133Z,23.03
2022-12-25T15:24:02.517Z,23.20
2022-12-25T15:26:36.643Z,23.00
2022-12-25T15:29:06.204Z,24.10
2022-12-25T15:31:37.714Z,23.77
2022-12-25T15:34:08.286Z,23.80
2022-12-25T15:36:36.788Z,23.93
2022-12-25T15:39:05.055Z,23.57
2022-12-25T15:41:54.533Z,26.47
2022-12-25T15:44:27.278Z,24.63
2022-12-25T15:46:57.177Z,24.93
2022-12-25T15:49:25.326Z,25.50
2022-12-25T15:51:53.541Z,26.57
2022-12-25T15:54:21.818Z,26.03
2022-12-25T15:56:52.721Z,26.53
2022-12-25T15:59:22.042Z,26.57
2022-12-25T16:01:52.371Z,27.60
2022-12-25T16:04:23.295Z,26.73
2022-12-25T16:06:56.080Z,26.57
2022-12-25T16:09:25.277Z,26.07
2022-12-25T16:11:53.485Z,27.83
2022-12-25T16:14:21.989Z,26.70
2022-12-25T16:16:50.244Z,27.30
2022-12-25T16:19:18.584Z,28.07
2022-12-25T16:21:48.578Z,26.83
2022-12-25T16:24:17.450Z,26.97
2022-12-25T16:26:45.763Z,26.30
2022-12-25T16:29:14.470Z,29.07
2022-12-25T16:31:43.559Z,30.40
2022-12-25T16:34:11.855Z,30.70
2022-12-25T16:36:40.179Z,28.73
2022-12-25T16:39:12.378Z,31.40
2022-12-25T16:41:40.524Z,30.60
2022-12-25T16:44:10.481Z,31.80
2022-12-25T16:46:40.710Z,31.03
2022-12-25T16:49:12.636Z,33.17
2022-12-25T16:51:40.848Z,33.10
2022-12-25T16:54:10.359Z,33.80
2022-12-25T16:56:38.625Z,34.20
2022-12-25T16:59:06.770Z,33.97
2022-12-25T17:01:35.039Z,34.43
2022-12-25T17:04:03.646Z,36.10
2022-12-25T17:06:34.344Z,34.67
2022-12-25T17:09:03.665Z,34.60
2022-12-25T17:11:33.415Z,32.80
2022-12-25T17:14:03.713Z,34.07
2022-12-25T17:16:36.427Z,33.80
2022-12-25T17:19:08.156Z,33.83
2022-12-25T17:21:38.321Z,33.27
2022-12-25T17:24:11.027Z,33.63
2022-12-25T17:26:41.630Z,32.33
2022-12-25T17:29:10.668Z,35.17
2022-12-25T17:31:39.590Z,32.53
2022-12-25T17:34:12.563Z,33.03
2022-12-25T17:36:40.760Z,33.03
2022-12-25T17:39:09.013Z,31.57
2022-12-25T17:41:37.223Z,33.17
2022-12-25T17:44:06.833Z,33.40
2022-12-25T17:46:40.417Z,31.83
2022-12-25T17:49:08.732Z,32.97
2022-12-25T17:51:36.918Z,35.07
2022-12-25T17:54:05.197Z,34.57
2022-12-25T17:56:34.380Z,32.53
2022-12-25T17:59:07.003Z,35.17
2022-12-25T18:01:38.914Z,33.93
2022-12-25T18:04:07.923Z,35.70
2022-12-25T18:06:37.180Z,36.63
2022-12-25T18:09:09.856Z,36.47
2022-12-25T18:11:40.288Z,34.93
2022-12-25T18:14:10.048Z,34.87
2022-12-25T18:16:43.141Z,36.53
2022-12-25T18:19:12.243Z,33.87
2022-12-25T18:21:40.545Z,33.60
2022-12-25T18:24:09.639Z,32.93
2022-12-25T18:26:38.090Z,33.10
2022-12-25T18:29:07.025Z,32.83
2022-12-25T18:31:39.697Z,33.50
2022-12-25T18:34:07.859Z,32.57
2022-12-25T18:36:37.099Z,31.53
2022-12-25T18:39:05.666Z,32.47
2022-12-25T18:41:53.797Z,32.77
2022-12-25T18:44:21.963Z,32.40
2022-12-25T18:46:51.484Z,30.33
2022-12-25T18:49:19.643Z,34.50
2022-12-25T18:51:50.661Z,32.50
2022-12-25T18:54:22.230Z,32.50
2022-12-25T18:56:53.441Z,32.87
2022-12-25T18:59:22.070Z,32.70
2022-12-25T19:01:51.668Z,31.47
2022-12-25T19:04:24.739Z,32.37
2022-12-25T19:06:52.923Z,31.93
2022-12-25T19:09:21.108Z,31.67
2022-12-25T19:11:49.318Z,33.47
2022-12-25T19:14:17.580Z,32.20
2022-12-25T19:16:45.975Z,31.83
2022-12-25T19:19:16.302Z,30.37
2022-12-25T19:21:44.497Z,30.87
2022-12-25T19:24:12.827Z,30.67
2022-12-25T19:26:41.116Z,32.37
2022-12-25T19:29:09.341Z,31.63
2022-12-25T19:31:40.657Z,32.27
2022-12-25T19:34:12.398Z,32.47
2022-12-25T19:36:42.136Z,32.40
2022-12-25T19:39:13.538Z,33.53
2022-12-25T19:41:41.853Z,33.03
2022-12-25T19:44:10.061Z,33.33
2022-12-25T19:46:40.520Z,32.10
2022-12-25T19:49:11.322Z,32.40
2022-12-25T19:51:43.935Z,32.47
2022-12-25T19:54:16.544Z,32.87
2022-12-25T19:56:45.255Z,33.07
2022-12-25T19:59:14.577Z,32.43
2022-12-25T20:01:43.562Z,31.57
2022-12-25T20:04:15.413Z,30.97
2022-12-25T20:06:45.407Z,31.30
2022-12-25T20:09:16.992Z,31.03
2022-12-25T20:11:52.800Z,31.77
2022-12-25T20:14:21.239Z,31.07
2022-12-25T20:16:49.669Z,30.80
2022-12-25T20:19:17.926Z,31.00
2022-12-25T20:21:48.736Z,33.57
2022-12-25T20:24:20.439Z,30.20
2022-12-25T20:26:50.532Z,31.57
2022-12-25T20:29:21.995Z,29.63
2022-12-25T20:31:51.264Z,30.87
2022-12-25T20:34:20.353Z,30.30
2022-12-25T20:36:50.265Z,29.50
2022-12-25T20:39:18.536Z,28.90
2022-12-25T20:41:47.578Z,28.70
2022-12-25T20:44:15.781Z,28.63
2022-12-25T20:46:47.548Z,29.50
2022-12-25T20:49:15.738Z,29.47
2022-12-25T20:51:43.882Z,28.53
2022-12-25T20:54:14.974Z,30.10
2022-12-25T20:56:43.234Z,28.90
2022-12-25T20:59:12.305Z,27.00
2022-12-25T21:01:42.393Z,26.23
2022-12-25T21:04:16.038Z,25.03
2022-12-25T21:06:44.809Z,25.73
2022-12-25T21:09:14.474Z,23.97
2022-12-25T21:11:42.668Z,24.57
2022-12-25T21:14:11.131Z,25.03
2022-12-25T21:16:40.450Z,24.57
2022-12-25T21:19:08.638Z,24.23
2022-12-25T21:21:39.180Z,26.17
2022-12-25T21:24:10.275Z,26.13
2022-12-25T21:26:46.082Z,26.90
2022-12-25T21:29:22.941Z,25.33
2022-12-25T21:32:09.263Z,26.67
2022-12-25T21:34:37.795Z,26.27
2022-12-25T21:37:06.020Z,25.63
2022-12-25T21:39:36.064Z,27.33
2022-12-25T21:42:05.863Z,26.70
2022-12-25T21:44:34.116Z,28.43
2022-12-25T21:47:02.236Z,29.93
2022-12-25T21:49:50.385Z,28.93
2022-12-25T21:52:19.635Z,28.10
2022-12-25T21:54:47.795Z,28.73
2022-12-25T21:57:17.444Z,28.07
2022-12-25T21:59:46.408Z,29.03
2022-12-25T22:02:14.880Z,26.27
2022-12-25T22:04:45.254Z,27.57
2022-12-25T22:07:19.306Z,28.17
2022-12-25T22:09:48.646Z,27.17
2022-12-25T22:12:38.315Z,28.67
2022-12-25T22:15:09.619Z,28.83
2022-12-25T22:17:58.239Z,28.03
2022-12-25T22:20:30.150Z,29.23
2022-12-25T22:22:59.234Z,28.47
2022-12-25T22:25:27.933Z,28.47
2022-12-25T22:27:59.648Z,28.33
2022-12-25T22:30:30.600Z,27.97
2022-12-25T22:32:59.705Z,28.43
2022-12-25T22:35:28.054Z,26.87
2022-12-25T22:37:56.407Z,28.67
2022-12-25T22:40:24.621Z,28.47
2022-12-25T22:42:58.155Z,28.87
2022-12-25T22:45:26.542Z,28.87
2022-12-25T22:47:54.924Z,28.00
2022-12-25T22:50:23.786Z,29.10
2022-12-25T22:52:55.637Z,27.90
2022-12-25T22:55:23.797Z,28.40
2022-12-25T22:57:52.167Z,30.53
2022-12-25T23:00:21.819Z,28.37
2022-12-25T23:02:50.874Z,29.17
2022-12-25T23:05:22.302Z,28.27
2022-12-25T23:07:51.586Z,28.93
2022-12-25T23:10:20.444Z,29.77
2022-12-25T23:13:07.322Z,28.10
2022-12-25T23:15:38.481Z,27.40
2022-12-25T23:18:25.040Z,26.10
2022-12-25T23:21:11.291Z,26.03
2022-12-25T23:24:08.973Z,27.30
2022-12-25T23:26:38.441Z,26.63
2022-12-25T23:29:25.815Z,26.73
2022-12-25T23:31:56.480Z,26.63
2022-12-25T23:34:25.122Z,26.50
2022-12-25T23:36:53.247Z,25.47
2022-12-25T23:39:23.650Z,27.10
2022-12-25T23:41:51.918Z,26.03
2022-12-25T23:44:21.901Z,25.77
2022-12-25T23:46:52.304Z,24.50
2022-12-25T23:49:23.471Z,22.97
2022-12-25T23:51:52.613Z,23.37
2022-12-25T23:54:22.869Z,22.37
2022-12-25T23:56:52.441Z,22.30
2022-12-25T23:59:21.632Z,22.50
